| time (UTC) | temp F | wind direction | speed MPH | gust MPH | rain 1hr in | rain 24hr in | rain mn in | humidity % | barometer mb |
| 20260506213603 | 57 | 98 | 0.0 | 1.0 | 0.10 | 0.63 | 0.63 | 96 | 1005.8 |
| 20260506212703 | 57 | 0 | 0.0 | 0.0 | 0.11 | 0.62 | 0.62 | 96 | 1005.7 |
| 20260506211803 | 57 | 0 | 0.0 | 0.0 | 0.12 | 0.61 | 0.61 | 96 | 1006.1 |
| 20260506210903 | 57 | 0 | 0.0 | 0.0 | 0.14 | 0.60 | 0.60 | 95 | 1005.9 |
| 20260506210004 | 57 | 0 | 0.0 | 0.0 | 0.15 | 0.60 | 0.60 | 95 | 1005.9 |
| 20260506205403 | 57 | 98 | 0.0 | 2.0 | 0.16 | 0.60 | 0.60 | 95 | 1005.9 |
| 20260506204503 | 57 | 0 | 0.0 | 0.0 | 0.15 | 0.56 | 0.57 | 95 | 1006.1 |
| 20260506203603 | 57 | 0 | 0.0 | 0.0 | 0.13 | 0.53 | 0.53 | 95 | 1006.4 |
| 20260506202703 | 57 | 311 | 0.0 | 2.0 | 0.11 | 0.51 | 0.51 | 95 | 1005.9 |
| 20260506201803 | 57 | 311 | 0.0 | 2.0 | 0.09 | 0.49 | 0.49 | 95 | 1005.9 |
| 20260506200903 | 57 | 279 | 1.0 | 3.0 | 0.08 | 0.46 | 0.46 | 95 | 1006.3 |
| 20260506200004 | 57 | 291 | 1.0 | 2.0 | 0.07 | 0.45 | 0.45 | 95 | 1005.9 |
| 20260506195620 | 57 | 269 | 0.0 | 2.0 | 0.08 | 0.45 | 0.45 | 95 | 1005.8 |
| 20260506194503 | 57 | 0 | 0.0 | 0.0 | 0.07 | 0.41 | 0.41 | 94 | 1005.5 |
| 20260506193603 | 57 | 0 | 0.0 | 0.0 | 0.09 | 0.40 | 0.40 | 94 | 1005.8 |
| 20260506192703 | 57 | 342 | 0.0 | 1.0 | 0.13 | 0.40 | 0.40 | 94 | 1005.2 |
| 20260506191803 | 57 | 0 | 0.0 | 0.0 | 0.20 | 0.40 | 0.40 | 93 | 1005.2 |
| 20260506191116 | 57 | 0 | 0.0 | 0.0 | 0.30 | 0.39 | 0.39 | 93 | 1005.7 |
| 20260506190220 | 57 | 241 | 0.0 | 1.0 | 0.37 | 0.38 | 0.38 | 93 | 1006.1 |
| 20260506185619 | 57 | 243 | 1.0 | 1.0 | 0.36 | 0.37 | 0.37 | 93 | 1005.8 |
| 20260506184503 | 58 | 328 | 1.0 | 2.0 | 0.33 | 0.34 | 0.34 | 92 | 1005.4 |
| 20260506183604 | 58 | 282 | 1.0 | 2.0 | 0.30 | 0.31 | 0.31 | 92 | 1005.4 |
| 20260506182917 | 58 | 197 | 0.0 | 1.0 | 0.27 | 0.28 | 0.28 | 91 | 1005.6 |
| 20260506181803 | 59 | 202 | 1.0 | 2.0 | 0.19 | 0.20 | 0.20 | 90 | 1006.0 |
| 20260506180903 | 60 | 352 | 0.0 | 1.0 | 0.05 | 0.06 | 0.06 | 89 | 1005.5 |
| 20260506180219 | 60 | 344 | 0.0 | 1.0 | 0.01 | 0.01 | 0.01 | 88 | 1004.6 |
| 20260506175403 | 60 | 356 | 0.0 | 1.0 | 0.01 | 0.01 | 0.01 | 87 | 1004.3 |
| 20260506174503 | 60 | 0 | 0.0 | 0.0 | 0.01 | 0.01 | 0.01 | 86 | 1004.5 |
| 20260506173818 | 60 | 0 | 0.0 | 1.0 | 0.01 | 0.01 | 0.01 | 85 | 1004.6 |
| 20260506171803 | 62 | 0 | 0.0 | 0.0 | 0.01 | 0.01 | 0.01 | 81 | 1004.1 |
| 20260506170903 | 62 | 241 | 1.0 | 2.0 | 0.01 | 0.01 | 0.01 | 79 | 1004.3 |
| 20260506170004 | 62 | 239 | 2.0 | 6.0 | 0.00 | 0.00 | 0.00 | 77 | 1004.4 |
| 20260506165403 | 66 | 236 | 2.0 | 7.0 | 0.00 | 0.00 | 0.00 | 67 | 1004.3 |
| 20260506164503 | 70 | 206 | 1.0 | 7.0 | 0.00 | 0.00 | 0.00 | 54 | 1004.4 |
| 20260506163603 | 71 | 251 | 0.0 | 1.0 | 0.00 | 0.00 | 0.00 | 49 | 1004.2 |
| 20260506162703 | 71 | 0 | 0.0 | 0.0 | 0.00 | 0.00 | 0.00 | 47 | 1004.0 |
| 20260506162016 | 71 | 255 | 0.0 | 1.0 | 0.00 | 0.00 | 0.00 | 46 | 1003.6 |
| 20260506160903 | 72 | 262 | 1.0 | 3.0 | 0.00 | 0.00 | 0.00 | 45 | 1004.0 |
| 20260506160003 | 73 | 262 | 1.0 | 3.0 | 0.00 | 0.00 | 0.00 | 44 | 1003.9 |
| 20260506155403 | 73 | 257 | 0.0 | 1.0 | 0.00 | 0.00 | 0.00 | 44 | 1003.9 |
| 20260506154503 | 73 | 242 | 1.0 | 3.0 | 0.00 | 0.00 | 0.00 | 43 | 1003.9 |
| 20260506153603 | 74 | 237 | 0.0 | 1.0 | 0.00 | 0.00 | 0.00 | 43 | 1004.2 |
| 20260506152916 | 74 | 249 | 1.0 | 3.0 | 0.00 | 0.00 | 0.00 | 42 | 1004.1 |
| 20260506151803 | 75 | 242 | 2.0 | 4.0 | 0.00 | 0.00 | 0.00 | 41 | 1004.2 |
| 20260506151119 | 75 | 248 | 2.0 | 4.0 | 0.00 | 0.00 | 0.00 | 43 | 1004.1 |
| 20260506150004 | 75 | 251 | 2.0 | 3.0 | 0.00 | 0.00 | 0.00 | 42 | 1004.1 |
| 20260506145403 | 74 | 248 | 2.0 | 6.0 | 0.00 | 0.00 | 0.00 | 43 | 1004.4 |
| 20260506144717 | 75 | 252 | 2.0 | 6.0 | 0.00 | 0.00 | 0.00 | 43 | 1004.5 |
| 20260506143816 | 75 | 250 | 2.0 | 3.0 | 0.00 | 0.00 | 0.00 | 42 | 1004.4 |
| 20260506142916 | 76 | 224 | 2.0 | 3.0 | 0.00 | 0.00 | 0.00 | 42 | 1004.5 |
| 20260506142019 | 74 | 248 | 2.0 | 3.0 | 0.00 | 0.00 | 0.00 | 44 | 1004.6 |
| 20260506140903 | 75 | 234 | 3.0 | 6.0 | 0.00 | 0.00 | 0.00 | 43 | 1004.9 |
| 20260506140004 | 75 | 206 | 2.0 | 6.0 | 0.00 | 0.00 | 0.00 | 43 | 1004.9 |
| 20260506135404 | 74 | 208 | 3.0 | 8.0 | 0.00 | 0.00 | 0.00 | 43 | 1004.8 |
| 20260506134503 | 74 | 216 | 3.0 | 8.0 | 0.00 | 0.00 | 0.00 | 45 | 1005.1 |
| 20260506133603 | 75 | 206 | 2.0 | 4.0 | 0.00 | 0.00 | 0.00 | 43 | 1005.3 |
| 20260506132703 | 74 | 256 | 3.0 | 9.0 | 0.00 | 0.00 | 0.00 | 44 | 1005.0 |
| 20260506132019 | 74 | 260 | 4.0 | 9.0 | 0.00 | 0.00 | 0.00 | 44 | 1005.0 |
| 20260506131118 | 75 | 252 | 3.0 | 7.0 | 0.00 | 0.00 | 0.00 | 43 | 1005.0 |
| 20260506130004 | 76 | 236 | 3.0 | 10.0 | 0.00 | 0.00 | 0.00 | 45 | 1005.1 |
| 20260506125617 | 76 | 237 | 2.0 | 7.0 | 0.00 | 0.00 | 0.00 | 44 | 1005.1 |
| 20260506124504 | 72 | 261 | 3.0 | 7.0 | 0.00 | 0.00 | 0.00 | 49 | 1005.4 |
| 20260506123604 | 72 | 226 | 2.0 | 8.0 | 0.00 | 0.00 | 0.00 | 47 | 1005.3 |
| 20260506122703 | 73 | 272 | 2.0 | 4.0 | 0.00 | 0.00 | 0.00 | 47 | 1005.1 |
| 20260506121803 | 72 | 218 | 3.0 | 6.0 | 0.00 | 0.00 | 0.00 | 50 | 1005.4 |
| 20260506120903 | 72 | 207 | 3.0 | 8.0 | 0.00 | 0.00 | 0.00 | 49 | 1005.5 |
| 20260506120004 | 71 | 185 | 2.0 | 4.0 | 0.00 | 0.00 | 0.00 | 50 | 1005.3 |
| 20260506115403 | 72 | 192 | 2.0 | 6.0 | 0.00 | 0.00 | 0.00 | 50 | 1005.4 |
| 20260506114503 | 71 | 227 | 2.0 | 4.0 | 0.00 | 0.00 | 0.00 | 51 | 1005.5 |
| 20260506113603 | 72 | 238 | 2.0 | 6.0 | 0.00 | 0.00 | 0.00 | 49 | 1005.1 |
| 20260506112703 | 71 | 268 | 2.0 | 6.0 | 0.00 | 0.00 | 0.00 | 51 | 1005.4 |
| 20260506112018 | 70 | 211 | 2.0 | 7.0 | 0.00 | 0.00 | 0.00 | 52 | 1005.3 |
| 20260506110903 | 71 | 240 | 2.0 | 4.0 | 0.00 | 0.00 | 0.00 | 51 | 1005.5 |
| 20260506110004 | 72 | 272 | 3.0 | 8.0 | 0.00 | 0.00 | 0.00 | 50 | 1005.4 |
| 20260506105616 | 71 | 269 | 3.0 | 8.0 | 0.00 | 0.00 | 0.00 | 50 | 1005.5 |
| 20260506104503 | 69 | 248 | 3.0 | 7.0 | 0.00 | 0.00 | 0.00 | 53 | 1005.2 |
| 20260506103603 | 69 | 252 | 3.0 | 7.0 | 0.00 | 0.00 | 0.00 | 53 | 1005.3 |
| 20260506102703 | 72 | 238 | 2.0 | 4.0 | 0.00 | 0.00 | 0.00 | 51 | 1005.0 |
| 20260506102018 | 71 | 228 | 2.0 | 4.0 | 0.00 | 0.00 | 0.00 | 52 | 1005.4 |
| 20260506100903 | 68 | 256 | 2.0 | 3.0 | 0.00 | 0.00 | 0.00 | 56 | 1005.1 |
| 20260506100216 | 68 | 237 | 2.0 | 6.0 | 0.00 | 0.00 | 0.00 | 55 | 1005.4 |
| 20260506095616 | 68 | 213 | 2.0 | 4.0 | 0.00 | 0.00 | 0.00 | 57 | 1005.4 |
| 20260506094503 | 70 | 224 | 2.0 | 4.0 | 0.00 | 0.00 | 0.00 | 54 | 1005.3 |
| 20260506093603 | 69 | 242 | 3.0 | 7.0 | 0.00 | 0.00 | 0.00 | 56 | 1005.2 |
| 20260506092703 | 68 | 250 | 2.0 | 6.0 | 0.00 | 0.00 | 0.00 | 58 | 1005.2 |
| 20260506092017 | 67 | 231 | 3.0 | 7.0 | 0.00 | 0.00 | 0.00 | 59 | 1005.3 |
| 20260506090903 | 67 | 250 | 3.0 | 7.0 | 0.00 | 0.00 | 0.00 | 58 | 1005.1 |
| 20260506090003 | 68 | 249 | 4.0 | 7.0 | 0.00 | 0.00 | 0.00 | 58 | 1005.3 |
| 20260506085403 | 67 | 240 | 4.0 | 7.0 | 0.00 | 0.00 | 0.00 | 60 | 1005.2 |
| 20260506084503 | 68 | 226 | 1.0 | 4.0 | 0.00 | 0.00 | 0.00 | 59 | 1004.9 |
| 20260506083603 | 68 | 254 | 2.0 | 3.0 | 0.00 | 0.00 | 0.00 | 62 | 1004.9 |
| 20260506082703 | 68 | 222 | 1.0 | 3.0 | 0.00 | 0.00 | 0.00 | 62 | 1004.9 |
| 20260506081803 | 67 | 256 | 2.0 | 6.0 | 0.00 | 0.00 | 0.00 | 65 | 1004.7 |
| 20260506080904 | 65 | 265 | 3.0 | 6.0 | 0.00 | 0.00 | 0.00 | 65 | 1004.8 |
| 20260506072703 | 66 | 239 | 2.0 | 4.0 | 0.00 | 0.00 | 0.00 | 68 | 1004.6 |
| 20260506071803 | 66 | 236 | 1.0 | 4.0 | 0.00 | 0.00 | 0.00 | 68 | 1004.8 |
| 20260506070903 | 65 | 247 | 1.0 | 3.0 | 0.00 | 0.00 | 0.00 | 69 | 1004.7 |
| 20260506070219 | 65 | 195 | 1.0 | 2.0 | 0.00 | 0.00 | 0.00 | 69 | 1004.7 |
| 20260506061803 | 60 | 237 | 0.0 | 1.0 | 0.00 | 0.00 | 0.00 | 77 | 1004.7 |
| 20260506061120 | 58 | 241 | 0.0 | 1.0 | 0.00 | 0.00 | 0.00 | 82 | 1004.7 |
| 20260506044503 | 53 | 0 | 0.0 | 0.0 | 0.00 | 0.00 | 0.00 | 89 | 1004.3 |
| 20260506043603 | 52 | 178 | 0.0 | 1.0 | 0.00 | 0.00 | 0.00 | 90 | 1004.2 |
| 20260506042703 | 52 | 0 | 0.0 | 0.0 | 0.00 | 0.00 | 0.00 | 90 | 1004.1 |
| 20260506041803 | 51 | 261 | 0.0 | 1.0 | 0.00 | 0.00 | 0.00 | 91 | 1004.1 |
| 20260506041119 | 51 | 262 | 0.0 | 1.0 | 0.00 | 0.00 | 0.00 | 91 | 1003.9 |
| 20260506040218 | 50 | 0 | 0.0 | 0.0 | 0.00 | 0.00 | 0.00 | 92 | 1003.7 |
| 20260506035617 | 50 | 0 | 0.0 | 0.0 | 0.00 | 0.00 | 0.00 | 92 | 1003.5 |
| 20260506034717 | 50 | 0 | 0.0 | 0.0 | 0.00 | 0.00 | 0.00 | 92 | 1003.4 |
| 20260506033603 | 49 | 0 | 0.0 | 0.0 | 0.00 | 0.00 | 0.00 | 92 | 1003.3 |
| 20260506032703 | 49 | 0 | 0.0 | 0.0 | 0.00 | 0.00 | 0.00 | 92 | 1003.3 |
| 20260506031803 | 48 | 0 | 0.0 | 0.0 | 0.00 | 0.00 | 0.00 | 92 | 1003.3 |
| 20260506030903 | 48 | 0 | 0.0 | 0.0 | 0.00 | 0.00 | 0.00 | 91 | 1003.5 |
| 20260506030218 | 48 | 0 | 0.0 | 0.0 | 0.00 | 0.00 | 0.00 | 91 | 1003.5 |
| 20260506025403 | 49 | 0 | 0.0 | 0.0 | 0.00 | 0.00 | 0.00 | 91 | 1003.6 |
| 20260506024503 | 48 | 0 | 0.0 | 0.0 | 0.00 | 0.00 | 0.00 | 90 | 1003.9 |
| 20260506023603 | 48 | 0 | 0.0 | 0.0 | 0.00 | 0.00 | 0.00 | 90 | 1003.9 |
| 20260506022703 | 48 | 0 | 0.0 | 0.0 | 0.00 | 0.00 | 0.00 | 89 | 1004.0 |
| 20260506021803 | 49 | 0 | 0.0 | 0.0 | 0.00 | 0.00 | 0.00 | 89 | 1004.1 |
| 20260506020904 | 50 | 0 | 0.0 | 0.0 | 0.00 | 0.00 | 0.00 | 89 | 1004.1 |
| 20260506020217 | 50 | 0 | 0.0 | 0.0 | 0.00 | 0.00 | 0.00 | 89 | 1004.0 |
| 20260506015403 | 49 | 0 | 0.0 | 0.0 | 0.00 | 0.00 | 0.00 | 89 | 1003.9 |
| 20260506014503 | 49 | 0 | 0.0 | 0.0 | 0.00 | 0.00 | 0.00 | 88 | 1003.9 |
| 20260506013603 | 50 | 0 | 0.0 | 0.0 | 0.00 | 0.00 | 0.00 | 88 | 1003.9 |
| 20260506012919 | 50 | 0 | 0.0 | 0.0 | 0.00 | 0.00 | 0.00 | 87 | 1004.0 |
| 20260506011803 | 51 | 0 | 0.0 | 0.0 | 0.00 | 0.00 | 0.00 | 86 | 1004.0 |
| 20260506010903 | 51 | 0 | 0.0 | 0.0 | 0.00 | 0.00 | 0.00 | 86 | 1003.9 |
| 20260506010003 | 52 | 247 | 0.0 | 1.0 | 0.00 | 0.00 | 0.00 | 85 | 1003.9 |
| 20260506005616 | 52 | 247 | 0.0 | 1.0 | 0.00 | 0.00 | 0.00 | 85 | 1003.9 |
| 20260506004504 | 51 | 0 | 0.0 | 0.0 | 0.00 | 0.00 | 0.00 | 85 | 1004.0 |
| 20260506003603 | 51 | 0 | 0.0 | 0.0 | 0.00 | 0.00 | 0.00 | 85 | 1003.6 |
| 20260506002703 | 52 | 0 | 0.0 | 0.0 | 0.00 | 0.00 | 0.00 | 85 | 1003.6 |
| 20260506000903 | 53 | 242 | 0.0 | 1.0 | 0.00 | 0.00 | 0.00 | 83 | 1003.4 |
| 20260506000003 | 53 | 256 | 0.0 | 1.0 | 0.00 | 0.00 | 0.00 | 84 | 1003.6 |
| 20260505235403 | 52 | 259 | 0.0 | 1.0 | 0.00 | 0.00 | 0.00 | 85 | 1003.8 |
| 20260505234503 | 52 | 265 | 0.0 | 1.0 | 0.00 | 0.00 | 0.00 | 85 | 1003.5 |
| 20260505233603 | 52 | 0 | 0.0 | 0.0 | 0.00 | 0.00 | 0.00 | 85 | 1003.4 |
| 20260505232703 | 53 | 0 | 0.0 | 0.0 | 0.00 | 0.00 | 0.00 | 85 | 1003.5 |
| 20260505231803 | 54 | 298 | 0.0 | 1.0 | 0.00 | 0.00 | 0.00 | 84 | 1003.7 |
| 20260505230903 | 55 | 291 | 0.0 | 1.0 | 0.00 | 0.00 | 0.00 | 82 | 1003.5 |
| 20260505230003 | 56 | 332 | 0.0 | 1.0 | 0.00 | 0.00 | 0.00 | 81 | 1003.9 |
| 20260505225403 | 56 | 324 | 0.0 | 1.0 | 0.00 | 0.00 | 0.00 | 81 | 1003.8 |
| 20260505224719 | 56 | 324 | 0.0 | 1.0 | 0.00 | 0.00 | 0.00 | 81 | 1003.8 |
| 20260505223603 | 57 | 355 | 0.0 | 1.0 | 0.00 | 0.00 | 0.00 | 79 | 1004.0 |
| 20260505222703 | 57 | 12 | 0.0 | 2.0 | 0.00 | 0.00 | 0.00 | 79 | 1003.9 |
| 20260505221803 | 58 | 36 | 0.0 | 2.0 | 0.00 | 0.00 | 0.00 | 79 | 1004.0 |
| 20260505220903 | 58 | 23 | 0.0 | 2.0 | 0.00 | 0.00 | 0.00 | 78 | 1004.3 |
| 20260505220003 | 58 | 352 | 0.0 | 1.0 | 0.00 | 0.00 | 0.00 | 78 | 1004.4 |